Bridgeport, Connecticut
Current Conditions -  °F | °C
As of 4:52 AM on Thursday 29 Jan 2015 (Local Time) from KBDR Reporting Station
Clear Clear  
Wind Chill: 12°   Ceiling: Unl
Heat Index: 12°   Visibility: 10mi
Dew Point:   Wind: 0mph
Humidity: 64%   Direction: NA
Pressure: 30.3"   Gusts: NA
Location:  41.18°N, 73.19°W
Report Text: KBDR 290952Z 00000KT 10SM CLR M11/M17 A3030 RMK AO2 SLP261 T11111167
Loading
Personal Weather Stations






























Interactive Weather Map New forecast layout! Learn more

10-Day Weather Forecast

Advertisements
Track Severe Weather on mobile